createdAt,value
2019-04-19T00:01:55.779Z,4.90
2019-04-19T00:04:19.680Z,4.20
2019-04-19T00:06:46.768Z,4.40
2019-04-19T00:09:26.291Z,4.93
2019-04-19T00:11:45.728Z,5.40
2019-04-19T00:14:06.511Z,4.87
2019-04-19T00:16:32.367Z,4.63
2019-04-19T00:19:20.078Z,4.77
2019-04-19T00:21:54.430Z,4.50
2019-04-19T00:23:54.531Z,4.77
2019-04-19T00:26:19.362Z,5.03
2019-04-19T00:28:52.814Z,5.00
2019-04-19T00:31:26.345Z,4.20
2019-04-19T00:33:43.406Z,4.57
2019-04-19T00:36:07.785Z,5.33
2019-04-19T00:38:43.050Z,4.40
2019-04-19T00:41:26.906Z,4.60
2019-04-19T00:44:02.167Z,4.90
2019-04-19T00:46:30.343Z,4.85
2019-04-19T00:49:01.110Z,4.40
2019-04-19T00:51:18.645Z,4.40
2019-04-19T00:53:43.442Z,5.07
2019-04-19T00:56:12.449Z,4.07
2019-04-19T00:58:32.940Z,4.90
2019-04-19T01:01:04.669Z,4.40
2019-04-19T01:03:30.552Z,4.10
2019-04-19T01:05:57.000Z,3.50
2019-04-19T01:08:21.285Z,4.60
2019-04-19T01:10:55.185Z,4.03
2019-04-19T01:13:17.910Z,4.13
2019-04-19T01:15:51.089Z,4.40
2019-04-19T01:18:15.310Z,4.50
2019-04-19T01:20:31.137Z,4.90
2019-04-19T01:23:03.823Z,3.90
2019-04-19T01:25:27.157Z,4.17
2019-04-19T01:27:50.916Z,4.33
2019-04-19T01:30:24.026Z,4.33
2019-04-19T01:32:51.364Z,4.40
2019-04-19T01:35:15.379Z,4.07
2019-04-19T01:37:37.526Z,4.63
2019-04-19T01:40:21.532Z,4.90
2019-04-19T01:42:50.931Z,5.00
2019-04-19T01:45:40.424Z,5.07
2019-04-19T01:48:28.442Z,4.57
2019-04-19T01:51:12.447Z,4.87
2019-04-19T01:53:39.026Z,5.17
2019-04-19T01:55:53.859Z,4.10
2019-04-19T01:58:18.028Z,5.00
2019-04-19T02:00:49.413Z,5.10
2019-04-19T02:03:09.800Z,5.20
2019-04-19T02:05:42.330Z,5.10
2019-04-19T02:08:07.121Z,5.57
2019-04-19T02:10:53.100Z,5.20
2019-04-19T02:13:17.106Z,5.30
2019-04-19T02:15:41.592Z,4.97
2019-04-19T02:18:01.210Z,5.33
2019-04-19T02:20:35.361Z,5.70
2019-04-19T02:23:01.587Z,5.00
2019-04-19T02:25:25.292Z,5.17
2019-04-19T02:27:51.410Z,5.00
2019-04-19T02:30:29.223Z,4.30
2019-04-19T02:33:11.900Z,4.70
2019-04-19T02:35:36.661Z,5.03
2019-04-19T02:40:45.223Z,4.42
2019-04-19T02:43:20.487Z,4.77
2019-04-19T02:48:00.888Z,5.40
2019-04-19T02:50:43.066Z,4.20
2019-04-19T02:52:47.314Z,5.00
2019-04-19T02:58:00.772Z,4.70
2019-04-19T03:03:09.281Z,4.40
2019-04-19T03:05:30.076Z,5.17
2019-04-19T03:07:32.183Z,4.60
2019-04-19T03:09:58.063Z,5.23
2019-04-19T03:12:47.200Z,5.70
2019-04-19T03:15:07.034Z,4.73
2019-04-19T03:17:35.042Z,5.30
2019-04-19T03:20:00.916Z,4.30
2019-04-19T03:22:46.629Z,5.10
2019-04-19T03:24:56.009Z,4.37
2019-04-19T03:27:14.811Z,4.57
2019-04-19T03:29:38.862Z,4.70
2019-04-19T03:37:06.345Z,5.50
2019-04-19T03:39:39.715Z,4.60
2019-04-19T03:42:29.676Z,5.17
2019-04-19T03:44:35.871Z,5.10
2019-04-19T03:49:45.057Z,4.90
2019-04-19T03:52:15.588Z,4.90
2019-04-19T03:54:23.637Z,4.80
2019-04-19T03:56:53.185Z,6.23
2019-04-19T03:59:02.734Z,5.80
2019-04-19T04:01:34.781Z,5.40
2019-04-19T04:04:03.067Z,4.33
2019-04-19T04:06:29.729Z,4.23
2019-04-19T04:08:58.235Z,4.93
2019-04-19T04:11:29.526Z,5.20
2019-04-19T04:14:12.540Z,5.23
2019-04-19T04:16:47.126Z,5.33
2019-04-19T04:19:10.313Z,5.35
2019-04-19T04:21:42.996Z,4.83
2019-04-19T04:24:13.058Z,5.00
2019-04-19T04:26:39.096Z,4.30
2019-04-19T04:29:07.710Z,4.83
2019-04-19T04:31:34.281Z,4.67
2019-04-19T04:34:03.016Z,4.97
2019-04-19T04:36:36.500Z,4.50
2019-04-19T04:38:46.216Z,4.70
2019-04-19T04:41:14.208Z,4.50
2019-04-19T04:43:48.509Z,5.20
2019-04-19T04:46:33.755Z,5.57
2019-04-19T04:48:58.285Z,4.80
2019-04-19T04:51:29.812Z,4.57
2019-04-19T04:53:45.210Z,4.90
2019-04-19T04:56:15.624Z,4.80
2019-04-19T04:58:45.810Z,4.87
2019-04-19T05:01:13.777Z,5.20
2019-04-19T05:03:54.385Z,4.87
2019-04-19T05:06:21.621Z,5.12
2019-04-19T05:08:45.128Z,4.67
2019-04-19T05:11:16.246Z,5.73
2019-04-19T05:13:48.334Z,4.70
2019-04-19T05:16:18.307Z,4.90
2019-04-19T05:18:36.065Z,5.37
2019-04-19T05:20:55.521Z,4.73
2019-04-19T05:23:28.589Z,4.93
2019-04-19T05:26:21.359Z,5.30
2019-04-19T05:28:21.873Z,4.90
2019-04-19T05:30:41.825Z,5.13
2019-04-19T05:33:09.904Z,5.30
2019-04-19T05:35:47.676Z,5.77
2019-04-19T05:38:17.590Z,5.03
2019-04-19T05:40:46.448Z,4.80
2019-04-19T05:43:37.174Z,5.50
2019-04-19T05:45:58.487Z,5.10
2019-04-19T05:48:08.153Z,4.20
2019-04-19T05:50:39.404Z,5.03
2019-04-19T05:53:06.880Z,4.83
2019-04-19T05:55:19.126Z,4.97
2019-04-19T05:57:56.622Z,5.08
2019-04-19T06:00:25.828Z,4.20
2019-04-19T06:02:53.367Z,4.80
2019-04-19T06:05:32.062Z,5.20
2019-04-19T06:07:45.721Z,3.93
2019-04-19T06:09:58.156Z,5.45
2019-04-19T06:12:28.720Z,5.30
2019-04-19T06:15:15.332Z,5.20
2019-04-19T06:17:50.969Z,5.00
2019-04-19T06:20:15.992Z,4.50
2019-04-19T06:22:50.014Z,4.70
2019-04-19T06:25:14.424Z,5.50
2019-04-19T06:28:00.777Z,5.10
2019-04-19T06:30:13.373Z,4.53
2019-04-19T06:32:33.720Z,4.97
2019-04-19T06:34:53.959Z,5.13
2019-04-19T06:37:14.441Z,5.23
2019-04-19T06:39:35.065Z,5.43
2019-04-19T06:42:05.877Z,6.35
2019-04-19T06:44:51.820Z,5.53
2019-04-19T06:47:08.371Z,5.53
2019-04-19T06:49:25.142Z,4.83
2019-04-19T06:51:57.477Z,5.17
2019-04-19T06:54:19.283Z,4.73
2019-04-19T06:56:46.735Z,5.10
2019-04-19T06:59:18.133Z,4.80
2019-04-19T07:01:42.197Z,5.30
2019-04-19T07:04:02.105Z,4.43
2019-04-19T07:06:44.319Z,4.30
2019-04-19T07:09:21.517Z,4.93
2019-04-19T07:11:46.559Z,4.70
2019-04-19T07:14:00.982Z,4.20
2019-04-19T07:16:35.017Z,5.37
2019-04-19T07:18:52.077Z,4.20
2019-04-19T07:21:29.016Z,3.60
2019-04-19T07:23:54.703Z,4.50
2019-04-19T07:26:20.382Z,4.27
2019-04-19T07:28:33.632Z,4.00
2019-04-19T07:31:01.108Z,4.50
2019-04-19T07:33:31.641Z,3.93
2019-04-19T07:36:22.369Z,4.43
2019-04-19T07:38:53.378Z,3.83
2019-04-19T07:41:02.948Z,4.30
2019-04-19T07:46:03.002Z,4.50
2019-04-19T07:48:18.466Z,4.33
2019-04-19T07:50:50.012Z,3.87
2019-04-19T07:53:08.308Z,3.90
2019-04-19T07:55:43.271Z,3.80
2019-04-19T07:58:30.113Z,4.70
2019-04-19T08:00:52.374Z,3.97
2019-04-19T08:03:25.965Z,3.80
2019-04-19T08:05:52.923Z,4.60
2019-04-19T08:11:01.557Z,4.60
2019-04-19T08:13:16.836Z,4.00
2019-04-19T08:15:40.792Z,3.90
2019-04-19T08:27:33.250Z,3.43
2019-04-19T08:29:59.182Z,4.50
2019-04-19T08:32:17.440Z,3.70
2019-04-19T08:34:52.035Z,4.37
2019-04-19T08:37:19.771Z,5.20
2019-04-19T08:39:49.938Z,4.40
2019-04-19T08:42:21.205Z,4.50
2019-04-19T08:44:43.006Z,4.13
2019-04-19T08:47:28.727Z,4.23
2019-04-19T08:49:51.971Z,3.70
2019-04-19T08:52:25.669Z,4.20
2019-04-19T08:55:09.397Z,4.30
2019-04-19T08:57:18.826Z,4.63
2019-04-19T09:00:03.456Z,4.10
2019-04-19T09:02:24.821Z,4.20
2019-04-19T09:04:50.720Z,4.30
2019-04-19T09:09:59.976Z,3.97
2019-04-19T09:12:12.082Z,4.60
2019-04-19T09:14:39.786Z,4.37
2019-04-19T09:17:13.079Z,4.93
2019-04-19T09:19:55.018Z,4.00
2019-04-19T09:21:55.900Z,4.53
2019-04-19T09:24:15.660Z,4.30
2019-04-19T09:26:56.321Z,3.90
2019-04-19T09:29:31.061Z,4.03
2019-04-19T09:31:43.954Z,4.40
2019-04-19T09:34:05.763Z,4.20
2019-04-19T09:36:33.401Z,3.90
2019-04-19T09:39:08.446Z,4.60
2019-04-19T09:41:24.719Z,4.10
2019-04-19T09:43:54.507Z,4.43
2019-04-19T09:46:10.572Z,4.43
2019-04-19T09:48:55.370Z,4.70
2019-04-19T09:51:24.354Z,4.93
2019-04-19T09:53:55.762Z,4.70
2019-04-19T09:56:17.399Z,4.87
2019-04-19T09:58:38.541Z,3.87
2019-04-19T10:01:04.100Z,4.97
2019-04-19T10:03:38.163Z,4.60
2019-04-19T10:05:58.380Z,4.55
2019-04-19T10:08:24.066Z,4.50
2019-04-19T10:10:51.690Z,4.30
2019-04-19T10:13:17.549Z,4.73
2019-04-19T10:15:54.406Z,4.37
2019-04-19T10:18:20.846Z,4.63
2019-04-19T10:20:55.106Z,5.10
2019-04-19T10:23:23.008Z,4.37
2019-04-19T10:25:54.944Z,4.13
2019-04-19T10:28:16.065Z,4.50
2019-04-19T10:30:50.755Z,4.70
2019-04-19T10:33:28.155Z,4.00
2019-04-19T10:35:45.449Z,4.93
2019-04-19T10:38:11.673Z,4.10
2019-04-19T10:40:37.703Z,4.33
2019-04-19T10:43:05.179Z,4.80
2019-04-19T10:45:32.036Z,4.93
2019-04-19T10:47:57.934Z,4.70
2019-04-19T10:50:39.567Z,4.70
2019-04-19T10:52:58.531Z,4.50
2019-04-19T10:55:28.517Z,4.93
2019-04-19T10:57:55.126Z,4.60
2019-04-19T11:00:21.861Z,5.20
2019-04-19T11:02:49.590Z,4.80
2019-04-19T11:05:16.466Z,5.03
2019-04-19T11:07:43.591Z,4.60
2019-04-19T11:10:09.720Z,4.47
2019-04-19T11:12:36.487Z,3.97
2019-04-19T11:15:02.587Z,4.83
2019-04-19T11:17:29.705Z,4.50
2019-04-19T11:20:13.942Z,5.62
2019-04-19T11:22:23.729Z,4.30
2019-04-19T11:24:50.038Z,4.50
2019-04-19T11:27:17.063Z,4.63
2019-04-19T11:29:42.821Z,5.20
2019-04-19T11:32:15.824Z,5.13
2019-04-19T11:34:45.119Z,4.37
2019-04-19T11:37:13.503Z,4.90
2019-04-19T11:39:39.092Z,4.62
2019-04-19T11:42:05.308Z,5.10
2019-04-19T11:44:32.651Z,4.70
2019-04-19T11:46:58.327Z,5.20
2019-04-19T11:49:33.221Z,5.25
2019-04-19T11:51:51.698Z,4.30
2019-04-19T11:54:18.727Z,4.85
2019-04-19T11:56:57.319Z,4.70
2019-04-19T11:59:34.278Z,4.60
2019-04-19T12:01:52.150Z,5.30
2019-04-19T12:04:18.465Z,4.03
2019-04-19T12:06:45.046Z,4.10
2019-04-19T12:09:12.426Z,4.27
2019-04-19T12:11:38.574Z,4.40
2019-04-19T12:14:05.917Z,4.47
2019-04-19T12:16:32.890Z,4.37
2019-04-19T12:19:00.050Z,4.80
2019-04-19T12:21:25.502Z,4.57
2019-04-19T12:23:52.945Z,4.40
2019-04-19T12:26:19.870Z,5.23
2019-04-19T12:28:45.902Z,4.83
2019-04-19T12:31:13.622Z,4.67
2019-04-19T12:33:39.571Z,4.13
2019-04-19T12:36:05.930Z,4.13
2019-04-19T12:38:33.343Z,3.97
2019-04-19T12:40:59.503Z,4.33
2019-04-19T12:43:26.276Z,4.10
2019-04-19T12:45:54.200Z,4.70
2019-04-19T12:48:19.752Z,4.30
2019-04-19T12:50:47.352Z,4.27
2019-04-19T12:53:13.204Z,4.10
2019-04-19T12:55:40.003Z,4.00
2019-04-19T12:58:07.996Z,3.90
2019-04-19T13:00:41.724Z,3.93
2019-04-19T13:03:12.053Z,4.57
2019-04-19T13:05:43.518Z,4.47
2019-04-19T13:08:09.488Z,4.23
2019-04-19T13:10:35.615Z,3.50
2019-04-19T13:13:03.618Z,4.00
2019-04-19T13:15:29.494Z,3.90
2019-04-19T13:17:56.042Z,4.00
2019-04-19T13:20:27.521Z,3.83
2019-04-19T13:22:50.452Z,3.83
2019-04-19T13:25:17.291Z,3.60
2019-04-19T13:27:49.980Z,3.60
2019-04-19T13:30:20.451Z,3.10
2019-04-19T13:32:36.254Z,3.43
2019-04-19T13:35:03.485Z,2.83
2019-04-19T13:37:41.046Z,3.63
2019-04-19T13:40:12.228Z,3.30
2019-04-19T13:42:39.051Z,3.10
2019-04-19T13:45:13.960Z,3.15
2019-04-19T13:47:31.607Z,3.40
2019-04-19T13:49:58.403Z,3.40
2019-04-19T13:52:32.487Z,3.20
2019-04-19T13:54:58.849Z,3.00
2019-04-19T13:57:25.839Z,3.47
2019-04-19T13:59:58.425Z,3.13
2019-04-19T14:02:20.515Z,3.43
2019-04-19T14:04:45.454Z,4.00
2019-04-19T14:07:12.632Z,3.00
2019-04-19T14:09:39.289Z,3.80
2019-04-19T14:12:07.058Z,3.40
2019-04-19T14:14:32.936Z,3.17
2019-04-19T14:16:59.887Z,3.33
2019-04-19T14:19:26.960Z,3.40
2019-04-19T14:21:55.038Z,3.17
2019-04-19T14:24:21.735Z,3.23
2019-04-19T14:26:52.121Z,3.00
2019-04-19T14:29:15.362Z,3.20
2019-04-19T14:31:42.256Z,3.00
2019-04-19T14:34:09.107Z,3.10
2019-04-19T14:36:36.179Z,3.30
2019-04-19T14:39:04.444Z,3.20
2019-04-19T14:41:30.033Z,3.37
2019-04-19T14:43:57.503Z,3.60
2019-04-19T14:46:24.797Z,3.27
2019-04-19T14:48:50.997Z,3.20
2019-04-19T14:51:24.617Z,3.40
2019-04-19T14:53:45.005Z,3.40
2019-04-19T14:56:11.438Z,3.17
2019-04-19T14:58:37.623Z,3.10
2019-04-19T15:01:15.137Z,3.23
2019-04-19T15:03:43.122Z,3.07
2019-04-19T15:06:10.110Z,2.97
2019-04-19T15:08:37.323Z,3.40
2019-04-19T15:11:03.254Z,3.35
2019-04-19T15:13:30.650Z,2.90
2019-04-19T15:15:56.466Z,3.03
2019-04-19T15:18:23.358Z,2.60
2019-04-19T15:20:58.156Z,2.90
2019-04-19T15:23:18.297Z,2.83
2019-04-19T15:25:44.607Z,3.00
2019-04-19T15:28:11.064Z,2.80
2019-04-19T15:30:37.551Z,2.70
2019-04-19T15:33:04.557Z,3.02
2019-04-19T15:35:31.876Z,2.90
2019-04-19T15:37:58.490Z,3.13
2019-04-19T15:40:25.816Z,2.70
2019-04-19T15:42:52.775Z,2.80
2019-04-19T15:45:20.882Z,3.30
2019-04-19T15:47:48.559Z,3.40
2019-04-19T15:50:14.070Z,3.20
2019-04-19T15:52:42.021Z,3.07
2019-04-19T15:55:08.172Z,2.80
2019-04-19T15:57:34.785Z,2.70
2019-04-19T16:00:02.451Z,3.10
2019-04-19T16:02:44.266Z,3.20
2019-04-19T16:05:30.185Z,2.90
2019-04-19T16:08:04.846Z,2.67
2019-04-19T16:10:42.515Z,2.90
2019-04-19T16:13:07.982Z,2.83
2019-04-19T16:15:36.066Z,2.40
2019-04-19T16:18:02.103Z,2.60
2019-04-19T16:20:29.359Z,2.63
2019-04-19T16:22:56.258Z,2.70
2019-04-19T16:25:23.277Z,2.27
2019-04-19T16:27:50.104Z,2.90
2019-04-19T16:30:16.857Z,2.72
2019-04-19T16:32:43.960Z,2.37
2019-04-19T16:35:12.015Z,2.27
2019-04-19T16:37:37.607Z,2.23
2019-04-19T16:40:04.838Z,3.00
2019-04-19T16:42:31.555Z,2.20
2019-04-19T16:44:59.576Z,2.50
2019-04-19T16:47:25.041Z,2.50
2019-04-19T16:49:52.178Z,2.03
2019-04-19T16:52:18.636Z,2.70
2019-04-19T16:54:46.265Z,2.43
2019-04-19T16:57:20.392Z,2.47
2019-04-19T16:59:39.724Z,2.00
2019-04-19T17:02:06.523Z,2.10
2019-04-19T17:04:32.496Z,2.10
2019-04-19T17:06:58.902Z,1.90
2019-04-19T17:09:26.780Z,2.07
2019-04-19T17:11:53.581Z,2.20
2019-04-19T17:14:21.000Z,2.17
2019-04-19T17:17:00.346Z,2.23
2019-04-19T17:19:34.883Z,2.10
2019-04-19T17:22:08.992Z,1.97
2019-04-19T17:24:27.237Z,1.73
2019-04-19T17:26:55.262Z,2.30
2019-04-19T17:29:20.911Z,1.80
2019-04-19T17:31:47.968Z,2.20
2019-04-19T17:34:14.582Z,2.10
2019-04-19T17:36:42.181Z,2.10
2019-04-19T17:39:08.780Z,2.40
2019-04-19T17:41:36.474Z,2.00
2019-04-19T17:44:03.633Z,1.83
2019-04-19T17:46:29.095Z,2.00
2019-04-19T17:48:56.891Z,2.00
2019-04-19T17:51:24.769Z,2.17
2019-04-19T17:53:52.041Z,2.20
2019-04-19T17:56:17.360Z,1.87
2019-04-19T17:58:44.360Z,1.90
2019-04-19T18:01:10.402Z,1.80
2019-04-19T18:03:37.450Z,2.60
2019-04-19T18:06:04.028Z,1.93
2019-04-19T18:08:32.829Z,1.70
2019-04-19T18:10:59.082Z,2.20
2019-04-19T18:13:25.370Z,1.50
2019-04-19T18:15:51.225Z,1.90
2019-04-19T18:18:17.958Z,2.30
2019-04-19T18:20:50.014Z,2.13
2019-04-19T18:23:24.114Z,2.20
2019-04-19T18:25:41.415Z,2.30
2019-04-19T18:28:08.719Z,2.87
2019-04-19T18:30:33.685Z,2.73
2019-04-19T18:33:04.654Z,2.87
2019-04-19T18:35:33.763Z,2.90
2019-04-19T18:37:59.018Z,2.50
2019-04-19T18:40:25.260Z,2.17
2019-04-19T18:43:09.755Z,2.30
2019-04-19T18:45:24.756Z,2.83
2019-04-19T18:47:47.198Z,2.60
2019-04-19T18:50:12.787Z,2.90
2019-04-19T18:52:50.670Z,3.30
2019-04-19T18:55:10.635Z,3.80
2019-04-19T18:57:38.316Z,3.80
2019-04-19T19:00:02.005Z,4.00
2019-04-19T19:02:28.505Z,4.40
2019-04-19T19:05:00.280Z,4.23
2019-04-19T19:07:23.729Z,3.93
2019-04-19T19:09:50.040Z,3.77
2019-04-19T19:12:15.580Z,3.80
2019-04-19T19:14:43.634Z,3.77
2019-04-19T19:17:13.633Z,3.00
2019-04-19T19:19:36.555Z,2.80
2019-04-19T19:22:02.149Z,3.13
2019-04-19T19:24:49.327Z,2.67
2019-04-19T19:27:05.391Z,2.60
2019-04-19T19:29:22.434Z,2.30
2019-04-19T19:31:47.873Z,2.17
2019-04-19T19:34:20.568Z,1.80
2019-04-19T19:36:46.591Z,1.90
2019-04-19T19:39:17.556Z,1.90
2019-04-19T19:42:27.304Z,2.10
2019-04-19T19:44:13.398Z,2.30
2019-04-19T19:47:06.895Z,2.50
2019-04-19T19:51:39.489Z,2.50
2019-04-19T19:54:38.936Z,2.37
2019-04-19T19:56:43.182Z,2.67
2019-04-19T19:59:02.509Z,2.77
2019-04-19T20:01:28.911Z,3.27
2019-04-19T20:03:46.764Z,2.60
2019-04-19T20:06:14.166Z,2.70
2019-04-19T20:08:39.737Z,2.93
2019-04-19T20:11:01.976Z,2.50
2019-04-19T20:13:35.969Z,2.80
2019-04-19T20:15:56.649Z,2.90
2019-04-19T20:18:29.659Z,2.57
2019-04-19T20:20:48.797Z,3.00
2019-04-19T20:23:23.298Z,2.27
2019-04-19T20:25:50.722Z,2.70
2019-04-19T20:28:09.241Z,2.97
2019-04-19T20:30:38.865Z,2.50
2019-04-19T20:33:03.732Z,2.77
2019-04-19T20:35:29.872Z,2.63
2019-04-19T20:38:00.869Z,2.33
2019-04-19T20:40:25.807Z,2.77
2019-04-19T20:43:09.584Z,2.77
2019-04-19T20:45:28.077Z,2.07
2019-04-19T20:47:49.302Z,2.70
2019-04-19T20:50:21.623Z,2.60
2019-04-19T20:52:48.664Z,3.00
2019-04-19T20:55:25.045Z,2.37
2019-04-19T20:57:49.823Z,2.10
2019-04-19T21:00:06.040Z,2.90
2019-04-19T21:02:35.610Z,3.10
2019-04-19T21:05:01.433Z,3.27
2019-04-19T21:07:29.671Z,3.30
2019-04-19T21:09:51.894Z,3.10
2019-04-19T21:12:24.049Z,3.30
2019-04-19T21:14:46.744Z,3.60
2019-04-19T21:17:12.472Z,3.20
2019-04-19T21:19:43.103Z,3.07
2019-04-19T21:22:06.440Z,3.50
2019-04-19T21:24:44.453Z,3.63
2019-04-19T21:27:06.007Z,2.77
2019-04-19T21:29:30.184Z,3.07
2019-04-19T21:31:55.922Z,3.53
2019-04-19T21:34:24.711Z,2.97
2019-04-19T21:36:52.510Z,3.30
2019-04-19T21:39:16.383Z,2.53
2019-04-19T21:41:41.854Z,3.40
2019-04-19T21:44:10.242Z,3.83
2019-04-19T21:46:34.631Z,3.03
2019-04-19T21:49:02.604Z,3.27
2019-04-19T21:51:31.828Z,3.47
2019-04-19T21:53:54.425Z,3.30
2019-04-19T21:56:20.603Z,3.70
2019-04-19T21:58:52.276Z,3.50
2019-04-19T22:01:15.893Z,3.80
2019-04-19T22:03:40.731Z,3.60
2019-04-19T22:06:17.686Z,3.70
2019-04-19T22:08:36.702Z,3.97
2019-04-19T22:11:00.539Z,3.93
2019-04-19T22:13:33.242Z,3.93
2019-04-19T22:15:56.772Z,3.90
2019-04-19T22:18:21.465Z,3.77
2019-04-19T22:20:54.025Z,4.40
2019-04-19T22:23:14.836Z,4.43
2019-04-19T22:25:49.216Z,4.20
2019-04-19T22:28:07.690Z,3.60
2019-04-19T22:30:40.683Z,3.57
2019-04-19T22:33:03.016Z,3.40
2019-04-19T22:35:29.005Z,3.87
2019-04-19T22:37:54.722Z,3.43
2019-04-19T22:40:21.295Z,4.03
2019-04-19T22:42:56.932Z,3.87
2019-04-19T22:45:19.140Z,3.70
2019-04-19T22:47:41.748Z,4.30
2019-04-19T22:50:10.797Z,3.77
2019-04-19T22:52:34.973Z,3.73
2019-04-19T22:55:06.705Z,3.57
2019-04-19T22:57:37.981Z,3.63
2019-04-19T22:59:59.420Z,3.80
2019-04-19T23:02:31.055Z,3.90
2019-04-19T23:04:57.863Z,4.30
2019-04-19T23:07:21.225Z,3.90
2019-04-19T23:09:48.614Z,3.70
2019-04-19T23:12:14.695Z,3.50
2019-04-19T23:14:50.521Z,3.10
2019-04-19T23:17:19.775Z,3.33
2019-04-19T23:19:46.007Z,3.60
2019-04-19T23:22:10.122Z,3.67
2019-04-19T23:24:43.735Z,3.50
2019-04-19T23:27:15.405Z,4.03
2019-04-19T23:29:33.032Z,3.70
2019-04-19T23:31:57.405Z,4.30
2019-04-19T23:34:23.223Z,4.20
2019-04-19T23:36:58.709Z,4.47
2019-04-19T23:39:17.300Z,3.90
2019-04-19T23:41:43.298Z,4.20
2019-04-19T23:44:14.250Z,3.97
2019-04-19T23:46:37.426Z,4.00
2019-04-19T23:49:08.740Z,3.83
2019-04-19T23:51:31.375Z,4.50
2019-04-19T23:53:56.950Z,3.60
2019-04-19T23:56:34.112Z,4.50
2019-04-19T23:58:50.429Z,4.53
